sensor_id;sensor_type;location;lat;lon;timestamp;P1;durP1;ratioP1;P2;durP2;ratioP2
36747;SDS011;22716;51.556;5.080;2023-08-30T00:00:06;8.90;;;6.63;;
36747;SDS011;22716;51.556;5.080;2023-08-30T00:02:35;10.43;;;6.73;;
36747;SDS011;22716;51.556;5.080;2023-08-30T00:05:04;8.43;;;6.50;;
36747;SDS011;22716;51.556;5.080;2023-08-30T00:07:34;9.73;;;6.00;;
36747;SDS011;22716;51.556;5.080;2023-08-30T00:10:03;7.70;;;6.03;;
36747;SDS011;22716;51.556;5.080;2023-08-30T00:12:33;7.27;;;5.90;;
36747;SDS011;22716;51.556;5.080;2023-08-30T00:15:05;7.13;;;5.70;;
36747;SDS011;22716;51.556;5.080;2023-08-30T00:17:35;10.20;;;7.13;;
36747;SDS011;22716;51.556;5.080;2023-08-30T00:20:05;8.37;;;6.57;;
36747;SDS011;22716;51.556;5.080;2023-08-30T00:22:35;8.07;;;6.33;;
36747;SDS011;22716;51.556;5.080;2023-08-30T00:25:04;6.50;;;5.77;;
36747;SDS011;22716;51.556;5.080;2023-08-30T00:27:32;9.93;;;6.60;;
36747;SDS011;22716;51.556;5.080;2023-08-30T00:30:01;8.43;;;6.15;;
36747;SDS011;22716;51.556;5.080;2023-08-30T00:32:32;9.73;;;6.97;;
36747;SDS011;22716;51.556;5.080;2023-08-30T00:35:01;8.87;;;6.30;;
36747;SDS011;22716;51.556;5.080;2023-08-30T00:37:30;6.90;;;5.60;;
36747;SDS011;22716;51.556;5.080;2023-08-30T00:39:58;7.60;;;6.23;;
36747;SDS011;22716;51.556;5.080;2023-08-30T00:42:28;8.83;;;6.13;;
36747;SDS011;22716;51.556;5.080;2023-08-30T00:44:57;9.18;;;6.05;;
36747;SDS011;22716;51.556;5.080;2023-08-30T00:47:25;7.05;;;6.28;;
36747;SDS011;22716;51.556;5.080;2023-08-30T00:49:56;9.37;;;5.77;;
36747;SDS011;22716;51.556;5.080;2023-08-30T00:52:25;10.40;;;5.80;;
36747;SDS011;22716;51.556;5.080;2023-08-30T00:54:54;10.97;;;5.53;;
36747;SDS011;22716;51.556;5.080;2023-08-30T00:57:22;11.85;;;6.78;;
36747;SDS011;22716;51.556;5.080;2023-08-30T00:59:51;7.37;;;6.03;;
36747;SDS011;22716;51.556;5.080;2023-08-30T01:02:21;9.37;;;6.97;;
36747;SDS011;22716;51.556;5.080;2023-08-30T01:04:50;8.97;;;6.87;;
36747;SDS011;22716;51.556;5.080;2023-08-30T01:07:22;8.48;;;6.05;;
36747;SDS011;22716;51.556;5.080;2023-08-30T01:09:52;7.63;;;5.47;;
36747;SDS011;22716;51.556;5.080;2023-08-30T01:12:22;7.63;;;5.67;;
36747;SDS011;22716;51.556;5.080;2023-08-30T01:14:57;10.48;;;5.75;;
36747;SDS011;22716;51.556;5.080;2023-08-30T01:17:29;7.90;;;5.63;;
36747;SDS011;22716;51.556;5.080;2023-08-30T01:20:00;9.10;;;6.10;;
36747;SDS011;22716;51.556;5.080;2023-08-30T01:22:40;6.60;;;5.43;;
36747;SDS011;22716;51.556;5.080;2023-08-30T01:25:17;9.80;;;6.47;;
36747;SDS011;22716;51.556;5.080;2023-08-30T01:27:58;9.83;;;6.03;;
36747;SDS011;22716;51.556;5.080;2023-08-30T01:30:31;10.33;;;6.80;;
36747;SDS011;22716;51.556;5.080;2023-08-30T01:33:03;10.13;;;6.30;;
36747;SDS011;22716;51.556;5.080;2023-08-30T01:35:33;7.47;;;5.70;;
36747;SDS011;22716;51.556;5.080;2023-08-30T01:38:03;7.70;;;5.90;;
36747;SDS011;22716;51.556;5.080;2023-08-30T01:40:33;8.23;;;5.90;;
36747;SDS011;22716;51.556;5.080;2023-08-30T01:43:07;7.28;;;5.63;;
36747;SDS011;22716;51.556;5.080;2023-08-30T01:45:38;10.40;;;7.07;;
36747;SDS011;22716;51.556;5.080;2023-08-30T01:48:09;8.60;;;5.90;;
36747;SDS011;22716;51.556;5.080;2023-08-30T01:50:39;9.02;;;6.55;;
36747;SDS011;22716;51.556;5.080;2023-08-30T01:53:09;9.40;;;5.75;;
36747;SDS011;22716;51.556;5.080;2023-08-30T01:55:40;7.57;;;6.43;;
36747;SDS011;22716;51.556;5.080;2023-08-30T01:58:12;10.98;;;6.75;;
36747;SDS011;22716;51.556;5.080;2023-08-30T02:00:41;10.30;;;7.13;;
36747;SDS011;22716;51.556;5.080;2023-08-30T02:03:09;11.57;;;6.53;;
36747;SDS011;22716;51.556;5.080;2023-08-30T02:05:41;8.07;;;6.30;;
36747;SDS011;22716;51.556;5.080;2023-08-30T02:08:20;8.60;;;6.27;;
36747;SDS011;22716;51.556;5.080;2023-08-30T02:10:55;14.67;;;6.90;;
36747;SDS011;22716;51.556;5.080;2023-08-30T02:16:00;8.88;;;6.50;;
36747;SDS011;22716;51.556;5.080;2023-08-30T02:18:30;8.23;;;6.57;;
36747;SDS011;22716;51.556;5.080;2023-08-30T02:20:58;16.00;;;12.10;;
36747;SDS011;22716;51.556;5.080;2023-08-30T02:23:28;12.35;;;8.48;;
36747;SDS011;22716;51.556;5.080;2023-08-30T02:25:56;12.20;;;9.33;;
36747;SDS011;22716;51.556;5.080;2023-08-30T02:28:25;7.93;;;6.50;;
36747;SDS011;22716;51.556;5.080;2023-08-30T02:30:56;10.82;;;7.13;;
36747;SDS011;22716;51.556;5.080;2023-08-30T02:33:25;8.85;;;6.43;;
36747;SDS011;22716;51.556;5.080;2023-08-30T02:35:54;9.07;;;6.57;;
36747;SDS011;22716;51.556;5.080;2023-08-30T02:38:23;8.57;;;7.30;;
36747;SDS011;22716;51.556;5.080;2023-08-30T02:40:51;11.90;;;7.28;;
36747;SDS011;22716;51.556;5.080;2023-08-30T02:43:20;10.52;;;6.45;;
36747;SDS011;22716;51.556;5.080;2023-08-30T02:45:48;11.35;;;7.47;;
36747;SDS011;22716;51.556;5.080;2023-08-30T02:48:20;10.23;;;7.18;;
36747;SDS011;22716;51.556;5.080;2023-08-30T02:50:48;11.23;;;6.85;;
36747;SDS011;22716;51.556;5.080;2023-08-30T02:53:17;10.93;;;7.27;;
36747;SDS011;22716;51.556;5.080;2023-08-30T02:55:46;9.63;;;6.25;;
36747;SDS011;22716;51.556;5.080;2023-08-30T02:58:15;11.95;;;7.63;;
36747;SDS011;22716;51.556;5.080;2023-08-30T03:00:44;8.43;;;6.77;;
36747;SDS011;22716;51.556;5.080;2023-08-30T03:03:12;10.10;;;7.30;;
36747;SDS011;22716;51.556;5.080;2023-08-30T03:05:43;9.32;;;6.35;;
36747;SDS011;22716;51.556;5.080;2023-08-30T03:08:12;7.95;;;6.57;;
36747;SDS011;22716;51.556;5.080;2023-08-30T03:10:40;10.37;;;7.30;;
36747;SDS011;22716;51.556;5.080;2023-08-30T03:13:09;12.38;;;7.05;;
36747;SDS011;22716;51.556;5.080;2023-08-30T03:15:38;10.10;;;7.03;;
36747;SDS011;22716;51.556;5.080;2023-08-30T03:18:07;12.13;;;7.00;;
36747;SDS011;22716;51.556;5.080;2023-08-30T03:20:35;12.05;;;8.38;;
36747;SDS011;22716;51.556;5.080;2023-08-30T03:23:07;13.68;;;7.25;;
36747;SDS011;22716;51.556;5.080;2023-08-30T03:25:35;10.97;;;8.17;;
36747;SDS011;22716;51.556;5.080;2023-08-30T03:28:04;10.70;;;8.07;;
36747;SDS011;22716;51.556;5.080;2023-08-30T03:30:33;12.03;;;7.77;;
36747;SDS011;22716;51.556;5.080;2023-08-30T03:33:02;10.47;;;8.00;;
36747;SDS011;22716;51.556;5.080;2023-08-30T03:35:33;11.27;;;8.40;;
36747;SDS011;22716;51.556;5.080;2023-08-30T03:38:02;11.88;;;8.43;;
36747;SDS011;22716;51.556;5.080;2023-08-30T03:40:33;12.23;;;8.10;;
36747;SDS011;22716;51.556;5.080;2023-08-30T03:43:03;10.37;;;7.23;;
36747;SDS011;22716;51.556;5.080;2023-08-30T03:45:34;9.10;;;7.73;;
36747;SDS011;22716;51.556;5.080;2023-08-30T03:48:03;10.57;;;7.30;;
36747;SDS011;22716;51.556;5.080;2023-08-30T03:50:33;8.83;;;7.10;;
36747;SDS011;22716;51.556;5.080;2023-08-30T03:53:01;10.33;;;8.33;;
36747;SDS011;22716;51.556;5.080;2023-08-30T03:55:33;13.17;;;7.70;;
36747;SDS011;22716;51.556;5.080;2023-08-30T03:58:02;11.00;;;7.20;;
36747;SDS011;22716;51.556;5.080;2023-08-30T04:00:31;9.27;;;7.13;;
36747;SDS011;22716;51.556;5.080;2023-08-30T04:03:00;11.13;;;7.60;;
36747;SDS011;22716;51.556;5.080;2023-08-30T04:05:31;9.43;;;6.63;;
36747;SDS011;22716;51.556;5.080;2023-08-30T04:08:00;9.95;;;6.65;;
36747;SDS011;22716;51.556;5.080;2023-08-30T04:10:29;10.38;;;6.32;;
36747;SDS011;22716;51.556;5.080;2023-08-30T04:13:04;9.37;;;6.77;;
36747;SDS011;22716;51.556;5.080;2023-08-30T04:15:34;8.73;;;7.17;;
36747;SDS011;22716;51.556;5.080;2023-08-30T04:18:06;11.97;;;7.13;;
36747;SDS011;22716;51.556;5.080;2023-08-30T04:20:34;8.57;;;6.50;;
36747;SDS011;22716;51.556;5.080;2023-08-30T04:23:03;9.83;;;6.50;;
36747;SDS011;22716;51.556;5.080;2023-08-30T04:25:32;10.37;;;6.73;;
36747;SDS011;22716;51.556;5.080;2023-08-30T04:28:05;10.70;;;7.37;;
36747;SDS011;22716;51.556;5.080;2023-08-30T04:30:35;9.53;;;7.13;;
36747;SDS011;22716;51.556;5.080;2023-08-30T04:33:05;6.97;;;6.07;;
36747;SDS011;22716;51.556;5.080;2023-08-30T04:35:34;11.23;;;6.50;;
36747;SDS011;22716;51.556;5.080;2023-08-30T04:38:03;8.98;;;6.95;;
36747;SDS011;22716;51.556;5.080;2023-08-30T04:40:32;10.10;;;6.53;;
36747;SDS011;22716;51.556;5.080;2023-08-30T04:43:02;8.80;;;6.13;;
36747;SDS011;22716;51.556;5.080;2023-08-30T04:45:34;7.17;;;6.33;;
36747;SDS011;22716;51.556;5.080;2023-08-30T04:48:03;10.82;;;7.07;;
36747;SDS011;22716;51.556;5.080;2023-08-30T04:50:32;9.23;;;6.93;;
36747;SDS011;22716;51.556;5.080;2023-08-30T04:53:00;12.33;;;6.83;;
36747;SDS011;22716;51.556;5.080;2023-08-30T04:55:29;9.00;;;5.57;;
36747;SDS011;22716;51.556;5.080;2023-08-30T04:57:58;8.40;;;7.50;;
36747;SDS011;22716;51.556;5.080;2023-08-30T05:00:29;8.80;;;6.68;;
36747;SDS011;22716;51.556;5.080;2023-08-30T05:02:57;11.10;;;6.13;;
36747;SDS011;22716;51.556;5.080;2023-08-30T05:05:26;7.40;;;6.53;;
36747;SDS011;22716;51.556;5.080;2023-08-30T05:07:54;9.27;;;7.28;;
36747;SDS011;22716;51.556;5.080;2023-08-30T05:10:23;9.43;;;6.55;;
36747;SDS011;22716;51.556;5.080;2023-08-30T05:12:51;10.40;;;6.40;;
36747;SDS011;22716;51.556;5.080;2023-08-30T05:15:20;9.00;;;6.40;;
36747;SDS011;22716;51.556;5.080;2023-08-30T05:17:51;11.53;;;7.47;;
36747;SDS011;22716;51.556;5.080;2023-08-30T05:20:20;7.30;;;5.80;;
36747;SDS011;22716;51.556;5.080;2023-08-30T05:22:48;6.97;;;5.80;;
36747;SDS011;22716;51.556;5.080;2023-08-30T05:25:17;8.53;;;6.67;;
36747;SDS011;22716;51.556;5.080;2023-08-30T05:27:45;7.63;;;6.17;;
36747;SDS011;22716;51.556;5.080;2023-08-30T05:30:14;7.60;;;6.17;;
36747;SDS011;22716;51.556;5.080;2023-08-30T05:32:42;10.20;;;5.37;;
36747;SDS011;22716;51.556;5.080;2023-08-30T05:35:13;7.00;;;5.43;;
36747;SDS011;22716;51.556;5.080;2023-08-30T05:37:42;7.97;;;5.67;;
36747;SDS011;22716;51.556;5.080;2023-08-30T05:40:11;7.65;;;5.85;;
36747;SDS011;22716;51.556;5.080;2023-08-30T05:42:42;10.30;;;6.17;;
36747;SDS011;22716;51.556;5.080;2023-08-30T05:45:10;9.20;;;5.35;;
36747;SDS011;22716;51.556;5.080;2023-08-30T05:47:39;7.77;;;5.30;;
36747;SDS011;22716;51.556;5.080;2023-08-30T05:50:08;8.33;;;5.53;;
36747;SDS011;22716;51.556;5.080;2023-08-30T05:52:40;11.02;;;5.63;;
36747;SDS011;22716;51.556;5.080;2023-08-30T05:55:10;9.60;;;6.13;;
36747;SDS011;22716;51.556;5.080;2023-08-30T05:57:38;10.57;;;5.80;;
36747;SDS011;22716;51.556;5.080;2023-08-30T06:00:08;12.13;;;6.63;;
36747;SDS011;22716;51.556;5.080;2023-08-30T06:02:38;10.73;;;6.57;;
36747;SDS011;22716;51.556;5.080;2023-08-30T06:05:07;10.40;;;6.07;;
36747;SDS011;22716;51.556;5.080;2023-08-30T06:07:39;8.53;;;6.63;;
36747;SDS011;22716;51.556;5.080;2023-08-30T06:10:08;10.57;;;6.73;;
36747;SDS011;22716;51.556;5.080;2023-08-30T06:12:37;6.80;;;5.43;;
36747;SDS011;22716;51.556;5.080;2023-08-30T06:15:06;8.80;;;5.90;;
36747;SDS011;22716;51.556;5.080;2023-08-30T06:17:35;8.50;;;6.53;;
36747;SDS011;22716;51.556;5.080;2023-08-30T06:20:04;11.93;;;7.00;;
36747;SDS011;22716;51.556;5.080;2023-08-30T06:22:34;10.40;;;7.43;;
36747;SDS011;22716;51.556;5.080;2023-08-30T06:25:06;10.47;;;7.30;;
36747;SDS011;22716;51.556;5.080;2023-08-30T06:27:40;12.37;;;7.13;;
36747;SDS011;22716;51.556;5.080;2023-08-30T06:30:10;13.75;;;7.80;;
36747;SDS011;22716;51.556;5.080;2023-08-30T06:32:39;11.23;;;7.40;;
36747;SDS011;22716;51.556;5.080;2023-08-30T06:35:08;10.87;;;7.33;;
36747;SDS011;22716;51.556;5.080;2023-08-30T06:37:36;14.20;;;7.90;;
36747;SDS011;22716;51.556;5.080;2023-08-30T06:40:09;18.40;;;8.00;;
36747;SDS011;22716;51.556;5.080;2023-08-30T06:42:38;12.47;;;7.33;;
36747;SDS011;22716;51.556;5.080;2023-08-30T06:45:07;9.60;;;6.83;;
36747;SDS011;22716;51.556;5.080;2023-08-30T06:47:36;12.43;;;7.38;;
36747;SDS011;22716;51.556;5.080;2023-08-30T06:50:06;11.48;;;7.50;;
36747;SDS011;22716;51.556;5.080;2023-08-30T06:52:35;11.33;;;7.63;;
36747;SDS011;22716;51.556;5.080;2023-08-30T06:55:04;12.40;;;8.37;;
36747;SDS011;22716;51.556;5.080;2023-08-30T06:57:36;12.10;;;6.80;;
36747;SDS011;22716;51.556;5.080;2023-08-30T07:00:05;15.10;;;7.57;;
36747;SDS011;22716;51.556;5.080;2023-08-30T07:02:36;11.33;;;6.47;;
36747;SDS011;22716;51.556;5.080;2023-08-30T07:05:06;12.20;;;6.43;;
36747;SDS011;22716;51.556;5.080;2023-08-30T07:07:35;10.67;;;5.97;;
36747;SDS011;22716;51.556;5.080;2023-08-30T07:10:04;9.35;;;6.10;;
36747;SDS011;22716;51.556;5.080;2023-08-30T07:12:37;11.60;;;5.90;;
36747;SDS011;22716;51.556;5.080;2023-08-30T07:15:06;10.33;;;5.67;;
36747;SDS011;22716;51.556;5.080;2023-08-30T07:17:36;7.80;;;5.67;;
36747;SDS011;22716;51.556;5.080;2023-08-30T07:20:08;11.47;;;5.40;;
36747;SDS011;22716;51.556;5.080;2023-08-30T07:22:37;7.53;;;5.13;;
36747;SDS011;22716;51.556;5.080;2023-08-30T07:25:09;8.23;;;5.63;;
36747;SDS011;22716;51.556;5.080;2023-08-30T07:27:39;7.73;;;5.47;;
36747;SDS011;22716;51.556;5.080;2023-08-30T07:30:08;7.70;;;5.40;;
36747;SDS011;22716;51.556;5.080;2023-08-30T07:32:37;8.63;;;5.28;;
36747;SDS011;22716;51.556;5.080;2023-08-30T07:35:06;8.53;;;5.50;;
36747;SDS011;22716;51.556;5.080;2023-08-30T07:37:35;9.03;;;6.00;;
36747;SDS011;22716;51.556;5.080;2023-08-30T07:40:05;9.13;;;5.97;;
36747;SDS011;22716;51.556;5.080;2023-08-30T07:42:37;8.27;;;5.50;;
36747;SDS011;22716;51.556;5.080;2023-08-30T07:45:06;8.07;;;5.17;;
36747;SDS011;22716;51.556;5.080;2023-08-30T07:47:36;6.30;;;4.68;;
36747;SDS011;22716;51.556;5.080;2023-08-30T07:50:06;11.63;;;5.97;;
36747;SDS011;22716;51.556;5.080;2023-08-30T07:52:35;10.60;;;4.93;;
36747;SDS011;22716;51.556;5.080;2023-08-30T07:55:04;6.53;;;4.57;;
36747;SDS011;22716;51.556;5.080;2023-08-30T07:57:37;9.53;;;5.07;;
36747;SDS011;22716;51.556;5.080;2023-08-30T08:00:06;6.13;;;5.07;;
36747;SDS011;22716;51.556;5.080;2023-08-30T08:02:36;6.93;;;5.13;;
36747;SDS011;22716;51.556;5.080;2023-08-30T08:05:04;5.63;;;4.23;;
36747;SDS011;22716;51.556;5.080;2023-08-30T08:07:33;9.93;;;4.63;;
36747;SDS011;22716;51.556;5.080;2023-08-30T08:10:04;4.53;;;4.10;;
36747;SDS011;22716;51.556;5.080;2023-08-30T08:12:33;7.70;;;4.57;;
36747;SDS011;22716;51.556;5.080;2023-08-30T08:15:05;7.20;;;4.90;;
36747;SDS011;22716;51.556;5.080;2023-08-30T08:17:34;6.57;;;5.17;;
36747;SDS011;22716;51.556;5.080;2023-08-30T08:20:04;5.77;;;5.03;;
36747;SDS011;22716;51.556;5.080;2023-08-30T08:22:33;12.70;;;7.13;;
36747;SDS011;22716;51.556;5.080;2023-08-30T08:25:02;9.20;;;6.77;;
36747;SDS011;22716;51.556;5.080;2023-08-30T08:27:31;8.48;;;7.30;;
36747;SDS011;22716;51.556;5.080;2023-08-30T08:30:00;8.77;;;7.63;;
36747;SDS011;22716;51.556;5.080;2023-08-30T08:32:32;8.20;;;7.40;;
36747;SDS011;22716;51.556;5.080;2023-08-30T08:35:00;9.33;;;8.33;;
36747;SDS011;22716;51.556;5.080;2023-08-30T08:37:29;10.93;;;8.95;;
36747;SDS011;22716;51.556;5.080;2023-08-30T08:39:57;19.03;;;10.20;;
36747;SDS011;22716;51.556;5.080;2023-08-30T08:42:32;12.90;;;8.63;;
36747;SDS011;22716;51.556;5.080;2023-08-30T08:45:02;16.93;;;10.47;;
36747;SDS011;22716;51.556;5.080;2023-08-30T08:47:34;13.27;;;9.73;;
36747;SDS011;22716;51.556;5.080;2023-08-30T08:50:03;15.18;;;8.82;;
36747;SDS011;22716;51.556;5.080;2023-08-30T08:52:32;12.40;;;8.70;;
36747;SDS011;22716;51.556;5.080;2023-08-30T08:55:01;9.80;;;8.77;;
36747;SDS011;22716;51.556;5.080;2023-08-30T08:57:30;14.77;;;11.00;;
36747;SDS011;22716;51.556;5.080;2023-08-30T08:59:59;16.00;;;10.83;;
36747;SDS011;22716;51.556;5.080;2023-08-30T09:02:28;24.77;;;11.70;;
36747;SDS011;22716;51.556;5.080;2023-08-30T09:04:59;17.07;;;10.07;;
36747;SDS011;22716;51.556;5.080;2023-08-30T09:07:30;14.47;;;9.93;;
36747;SDS011;22716;51.556;5.080;2023-08-30T09:09:59;13.07;;;10.53;;
36747;SDS011;22716;51.556;5.080;2023-08-30T09:12:32;28.13;;;13.93;;
36747;SDS011;22716;51.556;5.080;2023-08-30T09:15:00;18.23;;;10.73;;
36747;SDS011;22716;51.556;5.080;2023-08-30T09:17:36;14.73;;;9.97;;
36747;SDS011;22716;51.556;5.080;2023-08-30T09:20:11;12.80;;;9.48;;
36747;SDS011;22716;51.556;5.080;2023-08-30T09:22:43;12.47;;;9.23;;
36747;SDS011;22716;51.556;5.080;2023-08-30T09:25:22;11.87;;;9.90;;
36747;SDS011;22716;51.556;5.080;2023-08-30T09:27:56;14.20;;;10.32;;
36747;SDS011;22716;51.556;5.080;2023-08-30T09:30:26;10.07;;;8.73;;
36747;SDS011;22716;51.556;5.080;2023-08-30T09:33:00;17.23;;;10.53;;
36747;SDS011;22716;51.556;5.080;2023-08-30T09:35:34;13.50;;;8.87;;
36747;SDS011;22716;51.556;5.080;2023-08-30T09:38:16;11.17;;;8.73;;
36747;SDS011;22716;51.556;5.080;2023-08-30T09:40:45;13.20;;;9.55;;
36747;SDS011;22716;51.556;5.080;2023-08-30T09:43:17;12.63;;;9.10;;
36747;SDS011;22716;51.556;5.080;2023-08-30T09:45:47;11.13;;;8.97;;
36747;SDS011;22716;51.556;5.080;2023-08-30T09:48:20;10.60;;;8.83;;
36747;SDS011;22716;51.556;5.080;2023-08-30T09:50:53;10.40;;;8.13;;
36747;SDS011;22716;51.556;5.080;2023-08-30T09:53:23;9.97;;;8.83;;
36747;SDS011;22716;51.556;5.080;2023-08-30T09:55:54;8.37;;;7.57;;
36747;SDS011;22716;51.556;5.080;2023-08-30T09:58:26;8.93;;;7.37;;
36747;SDS011;22716;51.556;5.080;2023-08-30T10:00:56;11.53;;;9.27;;
36747;SDS011;22716;51.556;5.080;2023-08-30T10:03:28;11.70;;;9.30;;
36747;SDS011;22716;51.556;5.080;2023-08-30T10:06:01;19.33;;;11.07;;
36747;SDS011;22716;51.556;5.080;2023-08-30T10:08:31;10.07;;;7.87;;
36747;SDS011;22716;51.556;5.080;2023-08-30T10:11:04;16.23;;;9.57;;
36747;SDS011;22716;51.556;5.080;2023-08-30T10:13:33;7.90;;;7.10;;
36747;SDS011;22716;51.556;5.080;2023-08-30T10:16:06;17.65;;;10.02;;
36747;SDS011;22716;51.556;5.080;2023-08-30T10:18:40;12.90;;;8.83;;
36747;SDS011;22716;51.556;5.080;2023-08-30T10:21:12;7.63;;;4.90;;
36747;SDS011;22716;51.556;5.080;2023-08-30T10:23:42;6.30;;;4.22;;
36747;SDS011;22716;51.556;5.080;2023-08-30T10:26:11;30.30;;;12.70;;
36747;SDS011;22716;51.556;5.080;2023-08-30T10:28:41;15.83;;;5.87;;
36747;SDS011;22716;51.556;5.080;2023-08-30T10:31:12;10.82;;;4.25;;
36747;SDS011;22716;51.556;5.080;2023-08-30T10:33:53;7.03;;;4.10;;
36747;SDS011;22716;51.556;5.080;2023-08-30T10:36:25;15.88;;;6.18;;
36747;SDS011;22716;51.556;5.080;2023-08-30T10:38:54;8.68;;;2.97;;
36747;SDS011;22716;51.556;5.080;2023-08-30T10:41:24;6.65;;;3.80;;
36747;SDS011;22716;51.556;5.080;2023-08-30T10:43:55;8.70;;;3.73;;
36747;SDS011;22716;51.556;5.080;2023-08-30T10:46:31;4.90;;;2.47;;
36747;SDS011;22716;51.556;5.080;2023-08-30T10:49:08;10.13;;;3.15;;
36747;SDS011;22716;51.556;5.080;2023-08-30T10:51:42;7.82;;;3.67;;
36747;SDS011;22716;51.556;5.080;2023-08-30T10:54:12;7.90;;;3.55;;
36747;SDS011;22716;51.556;5.080;2023-08-30T10:56:46;6.53;;;2.37;;
36747;SDS011;22716;51.556;5.080;2023-08-30T10:59:16;7.50;;;2.10;;
36747;SDS011;22716;51.556;5.080;2023-08-30T11:01:45;5.33;;;1.87;;
36747;SDS011;22716;51.556;5.080;2023-08-30T11:04:15;6.95;;;2.50;;
36747;SDS011;22716;51.556;5.080;2023-08-30T11:06:48;7.77;;;2.93;;
36747;SDS011;22716;51.556;5.080;2023-08-30T11:09:17;8.15;;;2.65;;
36747;SDS011;22716;51.556;5.080;2023-08-30T11:11:47;6.05;;;2.30;;
36747;SDS011;22716;51.556;5.080;2023-08-30T11:14:17;9.25;;;3.50;;
36747;SDS011;22716;51.556;5.080;2023-08-30T11:16:46;9.25;;;2.83;;
36747;SDS011;22716;51.556;5.080;2023-08-30T11:19:15;2.97;;;2.15;;
36747;SDS011;22716;51.556;5.080;2023-08-30T11:21:44;14.30;;;2.83;;
36747;SDS011;22716;51.556;5.080;2023-08-30T11:24:16;8.45;;;2.38;;
36747;SDS011;22716;51.556;5.080;2023-08-30T11:26:44;7.20;;;2.83;;
36747;SDS011;22716;51.556;5.080;2023-08-30T11:29:13;8.55;;;2.97;;
36747;SDS011;22716;51.556;5.080;2023-08-30T11:31:41;5.95;;;2.13;;
36747;SDS011;22716;51.556;5.080;2023-08-30T11:34:12;8.18;;;3.33;;
36747;SDS011;22716;51.556;5.080;2023-08-30T11:36:41;9.63;;;3.65;;
36747;SDS011;22716;51.556;5.080;2023-08-30T11:39:12;8.07;;;2.92;;
36747;SDS011;22716;51.556;5.080;2023-08-30T11:41:41;6.57;;;3.07;;
36747;SDS011;22716;51.556;5.080;2023-08-30T11:44:10;6.35;;;2.13;;
36747;SDS011;22716;51.556;5.080;2023-08-30T11:46:39;3.53;;;1.90;;
36747;SDS011;22716;51.556;5.080;2023-08-30T11:49:08;5.25;;;1.80;;
36747;SDS011;22716;51.556;5.080;2023-08-30T11:51:37;3.65;;;1.60;;
36747;SDS011;22716;51.556;5.080;2023-08-30T11:54:06;6.05;;;1.80;;
36747;SDS011;22716;51.556;5.080;2023-08-30T11:56:38;6.37;;;2.17;;
36747;SDS011;22716;51.556;5.080;2023-08-30T11:59:06;6.25;;;2.40;;
36747;SDS011;22716;51.556;5.080;2023-08-30T12:01:45;11.15;;;2.50;;
36747;SDS011;22716;51.556;5.080;2023-08-30T12:04:14;5.50;;;2.17;;
36747;SDS011;22716;51.556;5.080;2023-08-30T12:06:44;4.88;;;2.22;;
36747;SDS011;22716;51.556;5.080;2023-08-30T12:14:11;7.40;;;2.17;;
36747;SDS011;22716;51.556;5.080;2023-08-30T12:18:26;5.87;;;1.60;;
36747;SDS011;22716;51.556;5.080;2023-08-30T12:20:56;12.23;;;2.10;;
36747;SDS011;22716;51.556;5.080;2023-08-30T12:25:01;4.18;;;1.58;;
36747;SDS011;22716;51.556;5.080;2023-08-30T12:27:29;37.65;;;12.40;;
36747;SDS011;22716;51.556;5.080;2023-08-30T12:29:58;16.27;;;4.32;;
36747;SDS011;22716;51.556;5.080;2023-08-30T12:32:26;5.30;;;1.90;;
36747;SDS011;22716;51.556;5.080;2023-08-30T12:34:54;9.18;;;2.72;;
36747;SDS011;22716;51.556;5.080;2023-08-30T12:37:23;6.18;;;2.10;;
36747;SDS011;22716;51.556;5.080;2023-08-30T12:39:52;12.38;;;2.70;;
36747;SDS011;22716;51.556;5.080;2023-08-30T12:42:23;3.90;;;1.80;;
36747;SDS011;22716;51.556;5.080;2023-08-30T12:44:51;8.63;;;2.00;;
36747;SDS011;22716;51.556;5.080;2023-08-30T12:47:19;8.18;;;2.65;;
36747;SDS011;22716;51.556;5.080;2023-08-30T12:49:48;11.25;;;4.15;;
36747;SDS011;22716;51.556;5.080;2023-08-30T12:52:16;11.50;;;2.55;;
36747;SDS011;22716;51.556;5.080;2023-08-30T12:54:44;8.02;;;2.20;;
36747;SDS011;22716;51.556;5.080;2023-08-30T12:57:13;5.10;;;2.20;;
36747;SDS011;22716;51.556;5.080;2023-08-30T12:59:44;3.67;;;1.95;;
36747;SDS011;22716;51.556;5.080;2023-08-30T13:02:13;29.23;;;3.00;;
36747;SDS011;22716;51.556;5.080;2023-08-30T13:04:41;11.00;;;2.58;;
36747;SDS011;22716;51.556;5.080;2023-08-30T13:07:09;4.20;;;1.50;;
36747;SDS011;22716;51.556;5.080;2023-08-30T13:09:37;11.57;;;2.25;;
36747;SDS011;22716;51.556;5.080;2023-08-30T13:12:06;5.72;;;2.17;;
36747;SDS011;22716;51.556;5.080;2023-08-30T13:14:34;8.85;;;2.22;;
36747;SDS011;22716;51.556;5.080;2023-08-30T13:17:21;5.68;;;2.05;;
36747;SDS011;22716;51.556;5.080;2023-08-30T13:19:49;7.57;;;2.33;;
36747;SDS011;22716;51.556;5.080;2023-08-30T13:22:18;8.88;;;3.03;;
36747;SDS011;22716;51.556;5.080;2023-08-30T13:24:47;11.13;;;3.33;;
36747;SDS011;22716;51.556;5.080;2023-08-30T13:27:16;4.63;;;1.80;;
36747;SDS011;22716;51.556;5.080;2023-08-30T13:29:44;7.30;;;2.23;;
36747;SDS011;22716;51.556;5.080;2023-08-30T13:32:13;9.45;;;3.55;;
36747;SDS011;22716;51.556;5.080;2023-08-30T13:34:44;5.47;;;2.17;;
36747;SDS011;22716;51.556;5.080;2023-08-30T13:37:13;26.07;;;8.67;;
36747;SDS011;22716;51.556;5.080;2023-08-30T13:39:41;7.37;;;2.80;;
36747;SDS011;22716;51.556;5.080;2023-08-30T13:42:11;30.37;;;11.67;;
36747;SDS011;22716;51.556;5.080;2023-08-30T13:44:39;12.53;;;4.40;;
36747;SDS011;22716;51.556;5.080;2023-08-30T13:47:09;17.53;;;5.30;;
36747;SDS011;22716;51.556;5.080;2023-08-30T13:49:37;16.07;;;4.07;;
36747;SDS011;22716;51.556;5.080;2023-08-30T13:52:09;20.13;;;3.67;;
36747;SDS011;22716;51.556;5.080;2023-08-30T13:54:37;8.40;;;2.63;;
36747;SDS011;22716;51.556;5.080;2023-08-30T13:57:06;9.40;;;2.97;;
36747;SDS011;22716;51.556;5.080;2023-08-30T13:59:34;8.40;;;2.40;;
36747;SDS011;22716;51.556;5.080;2023-08-30T14:02:04;5.03;;;2.47;;
36747;SDS011;22716;51.556;5.080;2023-08-30T14:04:32;14.27;;;2.27;;
36747;SDS011;22716;51.556;5.080;2023-08-30T14:07:02;5.95;;;1.90;;
36747;SDS011;22716;51.556;5.080;2023-08-30T14:09:34;11.03;;;3.27;;
36747;SDS011;22716;51.556;5.080;2023-08-30T14:12:03;9.57;;;3.77;;
36747;SDS011;22716;51.556;5.080;2023-08-30T14:14:32;5.47;;;2.88;;
36747;SDS011;22716;51.556;5.080;2023-08-30T14:17:02;6.30;;;1.70;;
36747;SDS011;22716;51.556;5.080;2023-08-30T14:19:33;9.38;;;3.20;;
36747;SDS011;22716;51.556;5.080;2023-08-30T14:22:03;2.65;;;1.30;;
36747;SDS011;22716;51.556;5.080;2023-08-30T14:24:34;6.15;;;1.90;;
36747;SDS011;22716;51.556;5.080;2023-08-30T14:27:03;2.88;;;1.33;;
36747;SDS011;22716;51.556;5.080;2023-08-30T14:29:32;4.83;;;1.67;;
36747;SDS011;22716;51.556;5.080;2023-08-30T14:32:01;6.20;;;2.10;;
36747;SDS011;22716;51.556;5.080;2023-08-30T14:34:30;6.85;;;2.08;;
36747;SDS011;22716;51.556;5.080;2023-08-30T14:36:59;4.50;;;2.30;;
36747;SDS011;22716;51.556;5.080;2023-08-30T14:39:27;3.65;;;1.92;;
36747;SDS011;22716;51.556;5.080;2023-08-30T14:41:59;8.40;;;3.05;;
36747;SDS011;22716;51.556;5.080;2023-08-30T14:44:27;7.07;;;3.05;;
36747;SDS011;22716;51.556;5.080;2023-08-30T14:46:56;7.68;;;2.30;;
36747;SDS011;22716;51.556;5.080;2023-08-30T14:49:24;4.00;;;1.40;;
36747;SDS011;22716;51.556;5.080;2023-08-30T14:51:53;3.05;;;1.20;;
36747;SDS011;22716;51.556;5.080;2023-08-30T14:54:21;3.50;;;1.33;;
36747;SDS011;22716;51.556;5.080;2023-08-30T14:56:50;5.30;;;2.47;;
36747;SDS011;22716;51.556;5.080;2023-08-30T14:59:21;2.47;;;1.10;;
36747;SDS011;22716;51.556;5.080;2023-08-30T15:01:50;2.60;;;1.10;;
36747;SDS011;22716;51.556;5.080;2023-08-30T15:04:19;4.40;;;1.48;;
36747;SDS011;22716;51.556;5.080;2023-08-30T15:06:47;5.47;;;1.33;;